createdAt,value
2022-10-11T06:45:38.730Z,16.58
2022-10-11T06:48:06.078Z,16.10
2022-10-11T06:50:57.873Z,16.88
2022-10-11T06:53:20.291Z,16.95
2022-10-11T06:55:47.232Z,16.55
2022-10-11T06:58:14.064Z,17.25
2022-10-11T07:00:40.851Z,17.05
2022-10-11T07:03:08.683Z,16.73
2022-10-11T07:05:35.873Z,16.58
2022-10-11T07:08:02.936Z,17.83
2022-10-11T07:10:29.711Z,18.73
2022-10-11T07:12:56.573Z,18.33
2022-10-11T07:15:24.598Z,16.25
2022-10-11T07:17:51.398Z,18.08
2022-10-11T07:20:18.235Z,17.75
2022-10-11T07:22:45.012Z,17.60
2022-10-11T07:25:11.804Z,17.17
2022-10-11T07:27:38.724Z,16.58
2022-10-11T07:30:06.342Z,17.58
2022-10-11T07:32:33.110Z,17.02
2022-10-11T07:34:59.957Z,18.80
2022-10-11T07:37:26.832Z,17.45
2022-10-11T07:39:53.650Z,18.02
2022-10-11T07:42:22.027Z,17.30
2022-10-11T07:44:48.984Z,17.60
2022-10-11T07:47:15.879Z,17.15
2022-10-11T07:49:42.781Z,17.50
2022-10-11T07:52:09.968Z,17.70
2022-10-11T07:54:36.799Z,16.52
2022-10-11T07:57:03.715Z,18.05
2022-10-11T07:59:30.488Z,17.23
2022-10-11T08:01:57.358Z,16.23
2022-10-11T08:04:25.448Z,17.67
2022-10-11T08:06:53.405Z,17.65
2022-10-11T08:09:20.510Z,18.67
2022-10-11T08:11:47.325Z,18.25
2022-10-11T08:14:14.103Z,17.42
2022-10-11T08:16:41.038Z,18.10
2022-10-11T08:19:08.010Z,18.58
2022-10-11T08:21:34.981Z,17.90
2022-10-11T08:24:03.571Z,17.60
2022-10-11T08:26:30.819Z,16.60
2022-10-11T08:28:58.945Z,17.67
2022-10-11T08:31:25.795Z,18.02
2022-10-11T08:33:52.752Z,18.73
2022-10-11T08:36:19.609Z,16.95
2022-10-11T08:38:46.384Z,17.00
2022-10-11T08:41:26.940Z,18.85
2022-10-11T08:44:08.791Z,16.90
2022-10-11T08:46:37.947Z,17.40
2022-10-11T08:49:07.129Z,21.45
2022-10-11T08:51:47.199Z,19.00
2022-10-11T08:54:27.054Z,20.15
2022-10-11T08:56:53.896Z,20.67
2022-10-11T08:59:43.118Z,18.58
2022-10-11T09:02:21.862Z,19.13
2022-10-11T09:04:51.569Z,20.23
2022-10-11T09:07:43.274Z,20.23
2022-10-11T09:10:39.592Z,19.77
2022-10-11T09:13:19.357Z,19.15
2022-10-11T09:15:53.849Z,19.27
2022-10-11T09:18:29.883Z,18.98
2022-10-11T09:21:05.535Z,19.25
2022-10-11T09:23:41.396Z,19.92
2022-10-11T09:26:31.372Z,21.35
2022-10-11T09:29:23.710Z,20.35
2022-10-11T09:31:57.142Z,20.75
2022-10-11T09:34:27.107Z,19.05
2022-10-11T09:37:07.837Z,19.67
2022-10-11T09:39:39.253Z,21.55
2022-10-11T09:42:08.716Z,18.88
2022-10-11T09:44:36.964Z,19.55
2022-10-11T09:47:05.242Z,19.65
2022-10-11T09:49:46.474Z,19.45
2022-10-11T09:52:19.300Z,19.00
2022-10-11T09:54:49.029Z,20.42
2022-10-11T09:57:23.584Z,21.73
2022-10-11T10:00:22.879Z,23.73
2022-10-11T10:03:02.891Z,21.95
2022-10-11T10:05:36.739Z,22.65
2022-10-11T10:08:09.685Z,21.25
2022-10-11T10:10:42.418Z,22.05
2022-10-11T10:13:36.970Z,19.70
2022-10-11T10:16:05.807Z,20.85
2022-10-11T10:18:54.912Z,22.15
2022-10-11T10:21:49.167Z,20.42
2022-10-11T10:24:27.900Z,21.88
2022-10-11T10:27:23.309Z,22.27
2022-10-11T10:30:07.988Z,23.75
2022-10-11T10:33:00.848Z,23.92
2022-10-11T10:35:40.456Z,25.25
2022-10-11T10:38:37.393Z,22.58
2022-10-11T10:41:13.831Z,23.45
2022-10-11T10:43:46.379Z,22.38
2022-10-11T10:49:28.728Z,21.48
2022-10-11T10:52:05.343Z,22.55
2022-10-11T10:54:56.044Z,21.60
2022-10-11T10:57:28.471Z,21.92
2022-10-11T11:02:54.758Z,23.45
2022-10-11T11:05:30.783Z,20.35
2022-10-11T11:08:15.756Z,23.25
2022-10-11T11:10:56.460Z,22.05
2022-10-11T11:13:32.231Z,23.10
2022-10-11T11:16:26.252Z,20.10
2022-10-11T11:19:06.220Z,22.13
2022-10-11T11:21:59.139Z,22.92
2022-10-11T11:24:44.437Z,21.95
2022-10-11T11:30:09.483Z,22.27
2022-10-11T11:32:55.236Z,21.15
2022-10-11T11:35:36.627Z,23.15
2022-10-11T11:38:14.067Z,20.80
2022-10-11T11:40:46.568Z,22.17
2022-10-11T11:46:00.910Z,20.85
2022-10-11T11:48:27.751Z,21.85
2022-10-11T11:51:03.711Z,23.25
2022-10-11T11:54:24.769Z,22.13
2022-10-11T11:57:20.638Z,23.30
2022-10-11T12:00:16.336Z,25.35
2022-10-11T12:02:53.861Z,20.65
2022-10-11T12:05:25.202Z,21.55
2022-10-11T12:07:59.972Z,22.48
2022-10-11T12:10:32.504Z,23.60
2022-10-11T12:16:10.240Z,22.23
2022-10-11T12:18:48.055Z,23.75
2022-10-11T12:21:34.985Z,23.17
2022-10-11T12:24:10.585Z,22.25
2022-10-11T12:26:43.249Z,22.88
2022-10-11T12:29:28.445Z,22.98
2022-10-11T12:31:58.802Z,22.70
2022-10-11T12:34:44.960Z,22.95
2022-10-11T12:37:17.968Z,20.90
2022-10-11T12:39:51.994Z,20.92
2022-10-11T12:42:33.728Z,22.52
2022-10-11T12:45:12.963Z,22.42
2022-10-11T12:47:45.608Z,24.52
2022-10-11T12:50:23.091Z,22.67
2022-10-11T12:53:17.004Z,20.48
2022-10-11T12:56:12.140Z,19.15
2022-10-11T12:58:41.647Z,19.73
2022-10-11T13:01:17.558Z,18.52
2022-10-11T13:04:04.641Z,20.98
2022-10-11T13:06:36.254Z,18.73
2022-10-11T13:09:08.114Z,19.33
2022-10-11T13:11:44.264Z,18.10
2022-10-11T13:14:29.234Z,17.13
2022-10-11T13:17:14.060Z,17.10
2022-10-11T13:22:26.608Z,16.88
2022-10-11T13:24:57.891Z,16.10
2022-10-11T13:27:27.342Z,17.30
2022-10-11T13:29:59.420Z,16.67
2022-10-11T13:32:29.745Z,15.85
2022-10-11T13:35:14.508Z,15.55
2022-10-11T13:37:45.901Z,18.27
2022-10-11T13:40:19.136Z,13.95
2022-10-11T13:42:48.487Z,13.82
2022-10-11T13:45:19.782Z,15.27
2022-10-11T13:47:48.504Z,13.07
2022-10-11T13:50:15.469Z,12.02
2022-10-11T13:53:01.939Z,17.27
2022-10-11T13:55:51.765Z,17.30
2022-10-11T13:58:27.042Z,19.00
2022-10-11T14:01:16.617Z,19.67
2022-10-11T14:04:01.285Z,19.85
2022-10-11T14:06:46.893Z,18.67
2022-10-11T14:09:29.370Z,16.20
2022-10-11T14:12:16.305Z,18.73
2022-10-11T14:14:43.490Z,15.15
2022-10-11T14:17:22.616Z,16.23
2022-10-11T14:20:24.049Z,15.07
2022-10-11T14:22:54.444Z,14.52
2022-10-11T14:25:22.043Z,14.35
2022-10-11T14:27:49.587Z,14.70
2022-10-11T14:30:25.529Z,16.38
2022-10-11T14:32:54.830Z,15.93
2022-10-11T14:35:30.705Z,15.35
2022-10-11T14:37:58.048Z,14.38
2022-10-11T14:40:28.503Z,12.57
2022-10-11T14:42:55.741Z,13.68
2022-10-11T14:45:23.391Z,11.45
2022-10-11T14:47:50.894Z,11.32
2022-10-11T14:50:20.537Z,10.07
2022-10-11T14:52:47.301Z,10.60
2022-10-11T14:55:14.297Z,10.48
2022-10-11T14:57:41.130Z,12.80
2022-10-11T15:00:20.347Z,13.73
2022-10-11T15:02:47.492Z,11.68
2022-10-11T15:05:14.465Z,13.20
2022-10-11T15:07:41.431Z,13.65
2022-10-11T15:10:19.637Z,11.13
2022-10-11T15:12:46.612Z,10.93
2022-10-11T15:15:19.751Z,11.00
2022-10-11T15:17:55.731Z,11.15
2022-10-11T15:20:32.403Z,11.70
2022-10-11T15:23:00.632Z,11.32
2022-10-11T15:25:28.979Z,7.85
2022-10-11T15:27:56.723Z,6.32
2022-10-11T15:30:30.874Z,5.28
2022-10-11T15:32:58.018Z,5.75
2022-10-11T15:35:26.215Z,5.50
2022-10-11T15:37:58.094Z,4.85
2022-10-11T15:40:30.121Z,5.45
2022-10-11T15:42:57.316Z,5.13
2022-10-11T15:45:24.472Z,6.20
2022-10-11T15:47:51.659Z,5.28
2022-10-11T15:50:34.578Z,5.32
2022-10-11T15:53:08.428Z,5.50
2022-10-11T15:55:40.955Z,5.38
2022-10-11T15:58:14.101Z,5.43
2022-10-11T16:00:46.011Z,5.32
2022-10-11T16:03:15.470Z,5.47
2022-10-11T16:05:43.412Z,7.47
2022-10-11T16:08:10.900Z,5.78
2022-10-11T16:10:38.612Z,6.93
2022-10-11T16:13:09.218Z,5.68
2022-10-11T16:15:59.820Z,5.93
2022-10-11T16:18:35.567Z,6.93
2022-10-11T16:21:08.863Z,5.90
2022-10-11T16:23:36.552Z,6.93
2022-10-11T16:26:06.977Z,7.38
2022-10-11T16:28:34.436Z,6.28
2022-10-11T16:31:08.309Z,5.68
2022-10-11T16:33:36.466Z,6.28
2022-10-11T16:36:26.224Z,6.22
2022-10-11T16:38:53.034Z,5.93
2022-10-11T16:41:19.875Z,6.88
2022-10-11T16:43:54.093Z,7.93
2022-10-11T16:46:21.549Z,7.00
2022-10-11T16:48:48.720Z,10.77
2022-10-11T16:51:15.568Z,11.00
2022-10-11T16:53:42.466Z,9.35
2022-10-11T16:56:12.231Z,9.82
2022-10-11T16:58:39.147Z,8.88
2022-10-11T17:01:10.639Z,7.57
2022-10-11T17:03:38.269Z,8.07
2022-10-11T17:06:06.674Z,6.30
2022-10-11T17:08:36.724Z,8.52
2022-10-11T17:11:04.104Z,6.97
2022-10-11T17:13:30.997Z,5.85
2022-10-11T17:15:58.183Z,7.68
2022-10-11T17:18:25.028Z,7.07
2022-10-11T17:21:01.203Z,7.35
2022-10-11T17:23:28.049Z,7.57
2022-10-11T17:25:54.898Z,6.25
2022-10-11T17:28:23.112Z,7.13
2022-10-11T17:30:57.304Z,7.50
2022-10-11T17:33:28.541Z,11.65
2022-10-11T17:36:00.074Z,7.20
2022-10-11T17:38:28.328Z,8.38
2022-10-11T17:41:06.226Z,16.17
2022-10-11T17:43:33.815Z,8.10
2022-10-11T17:46:06.779Z,7.80
2022-10-11T17:48:36.604Z,7.38
2022-10-11T17:51:12.634Z,7.88
2022-10-11T17:53:39.789Z,8.57
2022-10-11T17:56:12.807Z,6.75
2022-10-11T17:58:40.065Z,7.32
2022-10-11T18:01:13.408Z,7.53
2022-10-11T18:03:41.078Z,8.48
2022-10-11T18:06:12.133Z,9.50
2022-10-11T18:08:40.835Z,9.70
2022-10-11T18:11:13.714Z,10.32
2022-10-11T18:13:45.678Z,9.77
2022-10-11T18:16:14.209Z,17.30
2022-10-11T18:18:44.848Z,8.73
2022-10-11T18:21:12.175Z,8.43
2022-10-11T18:23:39.616Z,15.05
2022-10-11T18:26:20.800Z,10.63
2022-10-11T18:28:48.754Z,7.82
2022-10-11T18:31:21.132Z,7.63
2022-10-11T18:33:50.712Z,7.90
2022-10-11T18:36:20.456Z,6.78
2022-10-11T18:38:49.189Z,7.80
2022-10-11T18:41:18.400Z,7.97
2022-10-11T18:44:06.585Z,8.57
2022-10-11T18:46:34.708Z,6.97
2022-10-11T18:49:02.105Z,7.13
2022-10-11T18:51:34.497Z,7.72
2022-10-11T18:54:01.716Z,8.40
2022-10-11T18:56:30.244Z,8.10
2022-10-11T18:58:58.782Z,8.00
2022-10-11T19:01:29.031Z,9.18
2022-10-11T19:03:57.992Z,11.68
2022-10-11T19:06:30.890Z,7.35
2022-10-11T19:09:22.296Z,8.73
2022-10-11T19:11:56.956Z,8.00
2022-10-11T19:14:26.694Z,8.38
2022-10-11T19:16:54.637Z,7.57
2022-10-11T19:19:25.433Z,7.45
2022-10-11T19:21:53.920Z,7.90
2022-10-11T19:24:23.123Z,6.95
2022-10-11T19:26:50.667Z,7.63
2022-10-11T19:29:20.812Z,9.00
2022-10-11T19:32:05.776Z,7.60
2022-10-11T19:34:32.808Z,7.75
2022-10-11T19:37:01.100Z,7.65
2022-10-11T19:39:30.931Z,6.90
2022-10-11T19:41:57.919Z,8.25
2022-10-11T19:44:24.804Z,7.82
2022-10-11T19:46:52.664Z,7.63
2022-10-11T19:49:23.982Z,6.88
2022-10-11T19:51:51.729Z,7.22
2022-10-11T19:54:18.853Z,7.30
2022-10-11T19:56:45.886Z,8.27
2022-10-11T19:59:14.612Z,7.88
2022-10-11T20:01:42.003Z,8.05
2022-10-11T20:04:22.955Z,9.20
2022-10-11T20:06:58.247Z,7.75
2022-10-11T20:09:29.660Z,7.60
2022-10-11T20:11:57.157Z,7.22
2022-10-11T20:14:24.044Z,7.63
2022-10-11T20:16:51.088Z,7.78
2022-10-11T20:19:18.550Z,10.55
2022-10-11T20:21:45.607Z,7.70
2022-10-11T20:24:12.664Z,6.47
2022-10-11T20:26:39.776Z,7.05
2022-10-11T20:29:06.918Z,7.65
2022-10-11T20:31:35.043Z,7.70
2022-10-11T20:34:04.903Z,6.45
2022-10-11T20:36:32.799Z,8.10
2022-10-11T20:39:00.466Z,7.38
2022-10-11T20:41:31.617Z,6.95
2022-10-11T20:44:01.421Z,7.07
2022-10-11T20:46:33.506Z,7.47
2022-10-11T20:49:03.135Z,6.15
2022-10-11T20:51:34.953Z,6.47
2022-10-11T20:54:04.095Z,7.18
2022-10-11T20:56:31.462Z,6.43
2022-10-11T20:58:58.535Z,7.07
2022-10-11T21:01:28.438Z,6.47
2022-10-11T21:03:57.848Z,7.55
2022-10-11T21:06:25.720Z,5.88
2022-10-11T21:08:59.042Z,6.88
2022-10-11T21:11:27.578Z,6.68
2022-10-11T21:13:56.259Z,7.30
2022-10-11T21:16:23.483Z,7.03
2022-10-11T21:18:51.948Z,8.60
2022-10-11T21:21:19.273Z,7.40
2022-10-11T21:23:46.326Z,6.57
2022-10-11T21:26:15.780Z,7.25
2022-10-11T21:28:44.324Z,6.63
2022-10-11T21:31:13.734Z,6.57
2022-10-11T21:33:41.801Z,6.85
2022-10-11T21:36:11.239Z,7.63
2022-10-11T21:38:38.536Z,6.68
2022-10-11T21:41:16.929Z,7.38
2022-10-11T21:43:43.895Z,6.95
2022-10-11T21:46:32.555Z,7.90
2022-10-11T21:49:08.916Z,7.97
2022-10-11T21:51:35.834Z,7.55
2022-10-11T21:54:02.667Z,7.32
2022-10-11T21:56:32.737Z,8.50
2022-10-11T21:58:59.537Z,7.97
2022-10-11T22:01:26.712Z,7.93
2022-10-11T22:03:54.468Z,7.55
2022-10-11T22:06:21.640Z,6.53
2022-10-11T22:08:49.967Z,7.75
2022-10-11T22:11:17.504Z,8.20
2022-10-11T22:13:44.386Z,7.38
2022-10-11T22:16:13.276Z,7.90
